createdAt,value
2023-04-22T00:04:21.566Z,8.00
2023-04-22T00:09:24.081Z,8.60
2023-04-22T00:14:25.947Z,8.40
2023-04-22T00:19:28.176Z,8.20
2023-04-22T00:24:30.663Z,8.40
2023-04-22T00:29:32.502Z,8.10
2023-04-22T00:34:34.291Z,8.10
2023-04-22T00:39:39.399Z,8.20
2023-04-22T00:44:42.430Z,8.30
2023-04-22T00:49:44.745Z,8.20
2023-04-22T00:54:46.852Z,7.90
2023-04-22T00:59:49.354Z,8.20
2023-04-22T01:04:54.120Z,8.20
2023-04-22T01:09:56.821Z,7.90
2023-04-22T01:14:58.695Z,8.00
2023-04-22T01:20:00.613Z,8.00
2023-04-22T01:25:03.344Z,8.10
2023-04-22T01:30:06.313Z,7.70
2023-04-22T01:35:09.427Z,7.80
2023-04-22T01:40:12.617Z,7.90
2023-04-22T01:45:17.454Z,7.40
2023-04-22T01:50:19.981Z,7.80
2023-04-22T01:55:21.842Z,7.70
2023-04-22T02:00:23.653Z,7.70
2023-04-22T02:05:27.025Z,7.70
2023-04-22T02:10:28.863Z,7.60
2023-04-22T02:15:31.098Z,7.40
2023-04-22T02:20:33.023Z,7.10
2023-04-22T02:25:34.832Z,7.30
2023-04-22T02:30:36.766Z,7.20
2023-04-22T02:35:38.746Z,6.90
2023-04-22T02:40:40.579Z,7.60
2023-04-22T02:45:42.366Z,7.30
2023-04-22T02:50:44.511Z,7.20
2023-04-22T02:55:46.296Z,7.10
2023-04-22T03:00:48.137Z,7.30
2023-04-22T03:05:49.963Z,7.10
2023-04-22T03:10:51.763Z,7.30
2023-04-22T03:15:53.572Z,7.40
2023-04-22T03:20:55.457Z,7.30
2023-04-22T03:25:57.330Z,7.40
2023-04-22T03:30:59.144Z,7.00
2023-04-22T03:36:01.027Z,7.20
2023-04-22T03:41:02.939Z,6.80
2023-04-22T03:46:04.786Z,6.80
2023-04-22T03:51:06.714Z,6.60
2023-04-22T03:56:08.676Z,6.90
2023-04-22T04:01:11.451Z,6.60
2023-04-22T04:06:13.305Z,6.80
2023-04-22T04:11:15.147Z,6.50
2023-04-22T04:16:16.962Z,6.50
2023-04-22T04:21:18.803Z,6.60
2023-04-22T04:26:21.761Z,6.80
2023-04-22T04:31:24.730Z,6.70
2023-04-22T04:36:29.034Z,6.70
2023-04-22T04:41:33.908Z,6.80
2023-04-22T04:46:37.641Z,6.60
2023-04-22T04:51:40.063Z,7.00
2023-04-22T04:56:41.995Z,7.10
2023-04-22T05:01:43.841Z,7.70
2023-04-22T05:06:45.682Z,7.80
2023-04-22T05:11:47.540Z,8.10
2023-04-22T05:16:49.461Z,8.80
2023-04-22T05:21:51.335Z,9.30
2023-04-22T05:26:53.223Z,9.80
2023-04-22T05:31:55.019Z,10.10
2023-04-22T05:36:56.911Z,10.20
2023-04-22T05:41:59.098Z,10.60
2023-04-22T05:47:01.075Z,11.10
2023-04-22T05:52:03.223Z,11.40
2023-04-22T05:57:05.089Z,11.90
2023-04-22T06:02:07.040Z,12.10
2023-04-22T06:07:09.082Z,12.70
2023-04-22T06:12:11.030Z,13.20
2023-04-22T06:17:12.827Z,13.70
2023-04-22T06:22:14.685Z,14.10
2023-04-22T06:27:16.531Z,14.40
2023-04-22T06:32:27.754Z,15.10
2023-04-22T06:37:29.589Z,15.80
2023-04-22T06:42:31.452Z,16.50
2023-04-22T06:47:33.369Z,16.90
2023-04-22T06:52:35.811Z,17.20
2023-04-22T06:57:37.595Z,17.50
2023-04-22T07:02:39.493Z,17.90
2023-04-22T07:07:41.333Z,18.00
2023-04-22T07:12:43.157Z,18.20
2023-04-22T07:17:45.006Z,18.20
2023-04-22T07:22:46.902Z,18.00
2023-04-22T07:27:48.735Z,17.80
2023-04-22T07:32:50.618Z,17.80
2023-04-22T07:37:52.485Z,17.80
2023-04-22T07:42:54.399Z,17.80
2023-04-22T07:47:56.263Z,17.90
2023-04-22T07:52:58.412Z,18.10
2023-04-22T07:58:01.110Z,18.20
2023-04-22T08:03:03.572Z,18.30
2023-04-22T08:08:05.986Z,18.40
2023-04-22T08:13:07.776Z,18.70
2023-04-22T08:18:09.682Z,19.20
2023-04-22T08:23:12.120Z,19.30
2023-04-22T08:28:13.940Z,19.50
2023-04-22T08:33:16.528Z,20.20
2023-04-22T08:38:19.378Z,20.40
2023-04-22T08:43:21.210Z,20.40
2023-04-22T08:48:23.459Z,20.30
2023-04-22T08:53:25.737Z,20.30
2023-04-22T08:58:28.966Z,20.30
2023-04-22T09:03:31.500Z,20.60
2023-04-22T09:08:33.433Z,20.90
2023-04-22T09:13:35.655Z,21.00
2023-04-22T09:18:46.151Z,21.00
2023-04-22T09:23:55.603Z,21.20
2023-04-22T09:28:59.272Z,21.70
2023-04-22T09:34:01.871Z,21.60
2023-04-22T09:39:07.392Z,21.70
2023-04-22T09:44:15.330Z,21.30
2023-04-22T09:49:17.687Z,21.30
2023-04-22T09:54:19.502Z,21.70
2023-04-22T09:59:23.473Z,21.70
2023-04-22T10:04:25.967Z,21.60
2023-04-22T10:09:27.888Z,21.50
2023-04-22T10:14:29.719Z,21.70
2023-04-22T10:19:33.004Z,22.30
2023-04-22T10:24:36.613Z,22.00
2023-04-22T10:29:40.945Z,21.90
2023-04-22T10:34:43.617Z,21.70
2023-04-22T10:40:06.786Z,21.90
2023-04-22T10:45:14.252Z,22.10
2023-04-22T10:50:26.046Z,22.10
2023-04-22T10:55:51.849Z,22.00
2023-04-22T11:01:03.095Z,22.00
2023-04-22T11:06:16.182Z,22.00
2023-04-22T11:11:19.139Z,22.70
2023-04-22T11:16:24.383Z,22.00
2023-04-22T11:21:26.392Z,22.40
2023-04-22T11:26:35.829Z,22.20
2023-04-22T11:31:37.765Z,22.40
2023-04-22T11:36:44.929Z,22.20
2023-04-22T11:41:46.884Z,22.00
2023-04-22T11:46:49.809Z,22.00
2023-04-22T11:51:53.773Z,22.10
2023-04-22T11:56:55.597Z,22.20
2023-04-22T12:01:57.536Z,22.70
2023-04-22T12:06:59.420Z,22.40
2023-04-22T12:12:04.033Z,22.80
2023-04-22T12:17:09.101Z,23.00
2023-04-22T12:27:13.454Z,24.10
2023-04-22T12:32:16.359Z,22.80
2023-04-22T12:37:18.550Z,22.60
2023-04-22T12:42:23.817Z,22.70
2023-04-22T12:47:25.976Z,23.00
2023-04-22T12:52:28.836Z,22.80
2023-04-22T12:57:31.281Z,22.90
2023-04-22T13:02:33.172Z,22.80
2023-04-22T13:07:35.062Z,23.30
2023-04-22T13:12:38.518Z,22.60
2023-04-22T13:17:40.743Z,22.90
2023-04-22T13:22:43.175Z,23.10
2023-04-22T13:27:45.080Z,23.00
2023-04-22T13:32:47.043Z,23.00
2023-04-22T13:37:48.877Z,22.50
2023-04-22T13:42:50.836Z,23.00
2023-04-22T13:47:53.749Z,22.20
2023-04-22T13:52:55.661Z,22.40
2023-04-22T13:57:58.194Z,22.80
2023-04-22T14:03:00.976Z,22.10
2023-04-22T14:08:02.894Z,22.00
2023-04-22T14:13:04.781Z,22.20
2023-04-22T14:18:08.810Z,22.10
2023-04-22T14:23:11.417Z,22.20
2023-04-22T14:28:14.175Z,22.30
2023-04-22T14:33:17.310Z,22.30
2023-04-22T14:38:19.551Z,21.70
2023-04-22T14:43:21.481Z,22.00
2023-04-22T14:48:25.066Z,21.90
2023-04-22T14:53:27.049Z,21.70
2023-04-22T14:58:31.759Z,21.80
2023-04-22T15:03:35.245Z,21.50
2023-04-22T15:08:37.665Z,20.90
2023-04-22T15:13:39.449Z,21.40
2023-04-22T15:18:42.522Z,21.10
2023-04-22T15:23:44.534Z,21.30
2023-04-22T15:28:46.708Z,21.20
2023-04-22T15:33:48.504Z,21.10
2023-04-22T15:38:57.347Z,20.90
2023-04-22T15:43:59.309Z,20.90
2023-04-22T15:54:18.305Z,20.50
2023-04-22T15:59:20.565Z,20.50
2023-04-22T16:04:22.679Z,20.40
2023-04-22T16:09:25.122Z,20.20
2023-04-22T16:14:27.143Z,20.20
2023-04-22T16:19:29.011Z,20.10
2023-04-22T16:24:35.089Z,19.90
2023-04-22T16:29:37.193Z,19.90
2023-04-22T16:34:39.049Z,19.80
2023-04-22T16:39:41.031Z,18.80
2023-04-22T16:44:42.950Z,19.60
2023-04-22T16:49:44.759Z,19.50
2023-04-22T16:54:46.771Z,19.40
2023-04-22T16:59:49.101Z,19.20
2023-04-22T17:04:51.228Z,19.10
2023-04-22T17:09:53.265Z,19.00
2023-04-22T17:14:55.177Z,18.90
2023-04-22T17:19:57.070Z,18.80
2023-04-22T17:24:59.139Z,18.70
2023-04-22T17:30:01.257Z,18.50
2023-04-22T17:35:03.151Z,18.30
2023-04-22T17:40:14.115Z,18.10
2023-04-22T17:45:16.249Z,17.90
2023-04-22T17:50:18.232Z,17.70
2023-04-22T17:55:20.362Z,17.60
2023-04-22T18:00:22.333Z,17.40
2023-04-22T18:05:24.388Z,17.20
2023-04-22T18:10:26.421Z,17.00
2023-04-22T18:15:28.234Z,16.80
2023-04-22T18:20:30.438Z,16.70
2023-04-22T18:25:32.388Z,16.60
2023-04-22T18:30:34.310Z,16.60
2023-04-22T18:35:36.373Z,16.20
2023-04-22T18:40:38.273Z,16.00
2023-04-22T18:45:40.286Z,15.90
2023-04-22T18:50:42.309Z,16.20
2023-04-22T18:55:44.171Z,15.50
2023-04-22T19:00:45.964Z,15.50
2023-04-22T19:05:47.831Z,15.20
2023-04-22T19:10:49.663Z,15.00
2023-04-22T19:15:51.512Z,14.90
2023-04-22T19:20:53.360Z,14.90
2023-04-22T19:25:55.353Z,14.60
2023-04-22T19:31:00.031Z,14.60
2023-04-22T19:36:01.993Z,14.60
2023-04-22T19:41:04.127Z,14.60
2023-04-22T19:46:06.363Z,14.40
2023-04-22T19:51:09.997Z,14.30
2023-04-22T19:56:12.292Z,14.30
2023-04-22T20:01:14.282Z,14.20
2023-04-22T20:06:16.423Z,14.00
2023-04-22T20:11:18.277Z,14.00
2023-04-22T20:16:20.816Z,13.90
2023-04-22T20:21:23.348Z,13.70
2023-04-22T20:26:25.342Z,13.70
2023-04-22T20:31:27.254Z,13.60
2023-04-22T20:36:30.601Z,13.60
2023-04-22T20:41:36.430Z,13.60
2023-04-22T20:46:38.456Z,13.60
2023-04-22T20:51:40.617Z,13.60
2023-04-22T20:56:42.667Z,13.70
2023-04-22T21:01:44.714Z,13.70
2023-04-22T21:06:47.535Z,13.70
2023-04-22T21:11:52.636Z,13.70
2023-04-22T21:17:06.055Z,13.70
2023-04-22T21:22:08.176Z,13.70
2023-04-22T21:27:10.208Z,13.70
2023-04-22T21:32:12.644Z,13.80
2023-04-22T21:37:14.746Z,13.70
2023-04-22T21:42:16.578Z,13.70
2023-04-22T21:47:18.798Z,13.70
2023-04-22T21:52:20.679Z,13.70
2023-04-22T21:57:22.488Z,13.80
2023-04-22T22:02:26.456Z,13.80
2023-04-22T22:07:30.439Z,13.80
2023-04-22T22:12:32.314Z,13.70
2023-04-22T22:17:34.272Z,13.60
2023-04-22T22:22:36.134Z,13.60
2023-04-22T22:27:40.840Z,13.60
2023-04-22T22:32:42.704Z,13.60
2023-04-22T22:37:44.764Z,13.40
2023-04-22T22:42:46.616Z,13.40
2023-04-22T22:47:48.496Z,13.30
2023-04-22T22:52:50.426Z,13.10
2023-04-22T22:57:52.269Z,13.10
2023-04-22T23:02:54.351Z,12.90
2023-04-22T23:07:56.756Z,12.90
2023-04-22T23:12:58.536Z,12.70
2023-04-22T23:18:00.356Z,12.70
2023-04-22T23:23:03.968Z,12.70
2023-04-22T23:28:06.277Z,12.60
2023-04-22T23:33:09.637Z,12.60
2023-04-22T23:38:11.894Z,12.50
2023-04-22T23:43:13.876Z,12.50
2023-04-22T23:48:15.854Z,12.40
2023-04-22T23:53:17.804Z,12.30
2023-04-22T23:58:19.795Z,12.40
